Meeteetse, WY

1:16 AM MDT on August 01, 2014 (GMT -0600)
APRSWXNET Meeteetse WY US (MD0465) Elev 5797 ft | 44.16 °N, 108.87 °W | Change Station

Current weather conditions updated 3 days ago

Clear
Clear
62 °F
Feels Like 62 °F
N
8
Wind Variable Wind from WSW
Gusts 11 mph

Today is forecast to be nearly the same temperature as yesterday. Slight chance of a thunderstorm.

Today
High -- | Low -- °F
--% Chance of Precip.
Yesterday
High -- | Low -- °F
Precip. -- in
6:03 AM 8:39 PM
Waxing Crescent, 24% visible
Pressure 30.20 in
Visibility 10.0 miles
Clouds Clear
Dew Point 43 °F
Humidity 50%
Rainfall 0.00 in
Snow Depth Not available.
UV 0 out of 12
Pollen 6.60 out of 12
Air Quality Not available.
Flu Activity Not available.
METAR KCOD 010655Z AUTO 24005KT 10SM CLR 19/04 A3020 RMK AO1

More Conditions Fewer Conditions

Pressure 30.20 in
Visibility 10.0 miles
Clouds Clear
Dew Point 43 °F
Humidity 50%
Rainfall 0.00 in
Snow Depth Not available.
UV 0 out of 12
Pollen 6.60 out of 12
Air Quality Not available.
Flu Activity Not available.
METAR KCOD 010655Z AUTO 24005KT 10SM CLR 19/04 A3020 RMK AO1

More Conditions Fewer Conditions

10-Day Weather Forecast

Almanac

Astronomy

Aug. 01, 2014 Rise Set
Actual Time 6:03 AM MDT 8:39 PM MDT
Civil Twilight 5:30 AM MDT 9:12 PM MDT
Nautical Twilight 4:48 AM MDT 9:53 PM MDT
Astronomical Twilight 4:01 AM MDT 10:40 PM MDT
Moon 11:44 AM MDT 11:11 PM MDT
Length of Visible Light 15h 42m
Length of Day
14h 36m
Tomorrow will be 2m 22s shorter.
Waxing Crescent, 24% of the Moon is Illuminated
Today
Waxing Crescent
Aug 3
First Quarter
Aug 10
Full
Aug 17
Last Quarter
Aug 25
New

Today's Extremes

State Highs State Lows

Community

WunderPhotos

Upload Photos

1,739,522 photos uploaded!

Nearby

Snow Depth

Station Depth Elevation
Marquette 1 in 8760 ft
Kirwin 0 in 9550 ft
Owl Creek 0 in 8975 ft
Burroughs Creek 1 in 8750 ft
Beartooth Lake 0 in 9275 ft

Earthquake Activity

City Distance Mag. Time & Date
No recent earthquake activity has been reported nearby.
Minimum magnitude displayed is 2.5.

Coastal Water Temperatures

Place Temperature
No Stations Reporting

Nearby Weather Stations

Station Location Temp. Dew Point Humidity Wind Precip. Elev Updated Type
Cody WY, Cody DITWIT Weather @5230 ft, Cody, WY 65.2 °F 40 °F 40% North  at  0.0 mph 0.00 in / hr 5135 ft 1:16 AM MDT Rapid Fire
HADS BUFFALO BILL WEATHER STATION NEA WY, Cody, WY 66 °F - - NNW  at  6 mph 0.00 in / hr 5356 ft 12:45 AM MDT MADIS
RAWS GRASS CREEK DIVIDE WY, Thermopolis, WY 65 °F 33 °F 30% NNW  at  1 mph 0.00 in / hr 7126 ft 12:42 AM MDT MADIS

Show More Stations Show Fewer Stations